Time;durP1;ratioP1;P1;durP2;ratioP2;P2;SDS_P1;SDS_P2;PMS_P1;PMS_P2;Temp;Humidity;BMP_temperature;BMP_pressure;BME280_temperature;BME280_humidity;BME280_pressure;Samples;Min_cycle;Max_cycle;Signal;HPM_P1;HPM_P2
2024/01/11 00:00:05;;;;;;;;;;;2.50;99.90;;;;;;5114963;28;19915;-73
2024/01/11 00:02:30;;;;;;;;;;;2.50;99.90;;;;;;5115745;28;19908;-74
2024/01/11 00:04:56;;;;;;;;;;;2.50;99.90;;;;;;5116482;28;19934;-73
2024/01/11 00:07:21;;;;;;;;;;;2.50;99.90;;;;;;5115962;28;19908;-73
2024/01/11 00:09:47;;;;;;;;;;;2.50;99.90;;;;;;5115097;28;19911;-73
2024/01/11 00:12:12;;;;;;;;;;;2.60;99.90;;;;;;5114470;28;19908;-73
2024/01/11 00:14:38;;;;;;;;;;;2.60;99.90;;;;;;5115858;28;19903;-74
2024/01/11 00:17:03;;;;;;;;;;;2.60;99.90;;;;;;5108273;28;19904;-75
2024/01/11 00:19:29;;;;;;;;;;;2.60;99.90;;;;;;5114745;28;19947;-74
2024/01/11 00:21:54;;;;;;;;;;;2.50;99.90;;;;;;5114492;28;19908;-74
2024/01/11 00:24:20;;;;;;;;;;;2.50;99.90;;;;;;5116183;28;19908;-74
2024/01/11 00:26:45;;;;;;;;;;;2.50;99.90;;;;;;5114725;28;20518;-73
2024/01/11 00:29:11;;;;;;;;;;;2.50;99.90;;;;;;5116119;28;19907;-74
2024/01/11 00:31:38;;;;;;;;;;;2.50;99.90;;;;;;5112866;28;20368;-74
2024/01/11 00:34:04;;;;;;;;;;;2.50;99.90;;;;;;5114714;28;19908;-73
2024/01/11 00:36:29;;;;;;;;;;;2.50;99.90;;;;;;5115676;28;19904;-73
2024/01/11 00:38:55;;;;;;;;;;;2.50;99.90;;;;;;5114916;28;19957;-73
2024/01/11 00:41:20;;;;;;;;;;;2.50;99.90;;;;;;5114823;28;19908;-73
2024/01/11 00:43:46;;;;;;;;;;;2.50;99.90;;;;;;5115703;28;19910;-73
2024/01/11 00:46:11;;;;;;;;;;;2.50;99.90;;;;;;5114254;28;20022;-73
2024/01/11 00:48:37;;;;;;;;;;;2.50;99.90;;;;;;5114668;28;20260;-73
2024/01/11 00:51:06;;;;;;;;;;;2.40;99.90;;;;;;5114633;28;19957;-73
2024/01/11 00:53:32;;;;;;;;;;;2.40;99.90;;;;;;5115992;28;19903;-73
2024/01/11 00:55:58;;;;;;;;;;;2.40;99.90;;;;;;5114355;28;19927;-73
2024/01/11 00:58:23;;;;;;;;;;;2.40;99.90;;;;;;5115423;28;19908;-73
2024/01/11 01:00:49;;;;;;;;;;;2.40;99.90;;;;;;5114201;28;19912;-73
2024/01/11 01:03:16;;;;;;;;;;;2.40;99.90;;;;;;5112649;28;19915;-73
2024/01/11 01:05:41;;;;;;;;;;;2.40;99.90;;;;;;5115812;28;19911;-74
2024/01/11 01:08:07;;;;;;;;;;;2.40;99.90;;;;;;5119558;28;19910;-73
2024/01/11 01:10:33;;;;;;;;;;;2.40;99.90;;;;;;5117863;28;19911;-73
2024/01/11 01:12:58;;;;;;;;;;;2.40;99.90;;;;;;5119410;28;20576;-73
2024/01/11 01:15:24;;;;;;;;;;;2.40;99.90;;;;;;5116041;28;19961;-73
2024/01/11 01:17:49;;;;;;;;;;;2.30;99.90;;;;;;5118239;28;19904;-73
2024/01/11 01:20:15;;;;;;;;;;;2.40;99.90;;;;;;5119060;28;19904;-74
2024/01/11 01:22:40;;;;;;;;;;;2.30;99.90;;;;;;5118972;28;19903;-73
2024/01/11 01:25:06;;;;;;;;;;;2.30;99.90;;;;;;5118823;28;19904;-73
2024/01/11 01:27:31;;;;;;;;;;;2.30;99.90;;;;;;5117480;28;19953;-73
2024/01/11 01:29:57;;;;;;;;;;;2.30;99.90;;;;;;5117374;28;19903;-73
2024/01/11 01:32:22;;;;;;;;;;;2.30;99.90;;;;;;5115370;28;19908;-73
2024/01/11 01:34:48;;;;;;;;;;;2.30;99.90;;;;;;5118523;28;19907;-73
2024/01/11 01:37:14;;;;;;;;;;;2.30;99.90;;;;;;5117746;28;19921;-73
2024/01/11 01:39:39;;;;;;;;;;;2.30;99.90;;;;;;5118724;28;19908;-73
2024/01/11 01:42:06;;;;;;;;;;;2.30;99.90;;;;;;5118682;28;20403;-73
2024/01/11 01:44:32;;;;;;;;;;;2.30;99.90;;;;;;5118268;28;20351;-73
2024/01/11 01:46:58;;;;;;;;;;;2.30;99.90;;;;;;5117177;28;19951;-73
2024/01/11 01:49:24;;;;;;;;;;;2.30;99.90;;;;;;5117470;28;19907;-74
2024/01/11 01:51:50;;;;;;;;;;;2.30;99.90;;;;;;5117173;28;19956;-73
2024/01/11 01:54:16;;;;;;;;;;;2.30;99.90;;;;;;5118374;28;19914;-73
2024/01/11 01:56:42;;;;;;;;;;;2.30;99.90;;;;;;5118540;28;19915;-73
2024/01/11 01:59:10;;;;;;;;;;;2.30;99.90;;;;;;5117028;28;20393;-73
2024/01/11 02:01:36;;;;;;;;;;;2.30;99.90;;;;;;5118763;28;19908;-73
2024/01/11 02:04:01;;;;;;;;;;;2.30;99.90;;;;;;5118301;28;20371;-74
2024/01/11 02:06:29;;;;;;;;;;;2.40;99.90;;;;;;5117041;28;19907;-73
2024/01/11 02:08:56;;;;;;;;;;;2.40;99.90;;;;;;5116860;28;19973;-73
2024/01/11 02:11:23;;;;;;;;;;;2.40;99.90;;;;;;5117168;28;19904;-73
2024/01/11 02:13:51;;;;;;;;;;;2.40;99.90;;;;;;5117586;28;19910;-74
2024/01/11 02:16:17;;;;;;;;;;;2.40;99.90;;;;;;5115769;28;19959;-73
2024/01/11 02:18:42;;;;;;;;;;;2.40;99.90;;;;;;5116555;28;20006;-73
2024/01/11 02:21:09;;;;;;;;;;;2.40;99.90;;;;;;5118203;28;19992;-73
2024/01/11 02:23:36;;;;;;;;;;;2.40;99.90;;;;;;5117627;28;20128;-74
2024/01/11 02:26:01;;;;;;;;;;;2.40;99.90;;;;;;5117908;28;20002;-74
2024/01/11 02:28:27;;;;;;;;;;;2.50;99.90;;;;;;5117629;28;19935;-74
2024/01/11 02:30:52;;;;;;;;;;;2.50;99.90;;;;;;5116646;28;19911;-74
2024/01/11 02:33:18;;;;;;;;;;;2.50;99.90;;;;;;5112933;28;19910;-73
2024/01/11 02:35:44;;;;;;;;;;;2.50;99.90;;;;;;5117864;27;19904;-73
2024/01/11 02:38:09;;;;;;;;;;;2.50;99.90;;;;;;5117483;28;19946;-74
2024/01/11 02:40:37;;;;;;;;;;;2.50;99.90;;;;;;5116144;28;19912;-74
2024/01/11 02:43:11;;;;;;;;;;;2.50;99.90;;;;;;5117039;28;19903;-74
2024/01/11 02:45:37;;;;;;;;;;;2.40;99.90;;;;;;5116055;28;19914;-74
2024/01/11 02:48:03;;;;;;;;;;;2.50;99.90;;;;;;5117228;28;19929;-73
2024/01/11 02:50:28;;;;;;;;;;;2.50;99.90;;;;;;5117635;27;19983;-73
2024/01/11 02:52:54;;;;;;;;;;;2.50;99.90;;;;;;5115765;28;20276;-74
2024/01/11 02:55:19;;;;;;;;;;;2.50;99.90;;;;;;5117260;28;19916;-73
2024/01/11 02:57:45;;;;;;;;;;;2.50;99.90;;;;;;5117316;28;19919;-74
2024/01/11 03:00:11;;;;;;;;;;;2.50;99.90;;;;;;5117310;28;19914;-74
2024/01/11 03:02:37;;;;;;;;;;;2.40;99.90;;;;;;5117174;28;20018;-74
2024/01/11 03:05:03;;;;;;;;;;;2.50;99.90;;;;;;5117349;28;19904;-73
2024/01/11 03:07:30;;;;;;;;;;;2.40;99.90;;;;;;5116713;28;20039;-74
2024/01/11 03:09:56;;;;;;;;;;;2.50;99.90;;;;;;5117162;28;19908;-73
2024/01/11 03:12:21;;;;;;;;;;;2.50;99.90;;;;;;5116503;28;19912;-74
2024/01/11 03:14:47;;;;;;;;;;;2.50;99.90;;;;;;5115772;28;19961;-73
2024/01/11 03:17:13;;;;;;;;;;;2.50;99.90;;;;;;5114167;28;19910;-73
2024/01/11 03:19:39;;;;;;;;;;;2.50;99.90;;;;;;5117054;27;19904;-74
2024/01/11 03:22:06;;;;;;;;;;;2.50;99.90;;;;;;5116892;28;19919;-73
2024/01/11 03:24:32;;;;;;;;;;;2.50;99.90;;;;;;5115526;28;19908;-73
2024/01/11 03:26:57;;;;;;;;;;;2.50;99.90;;;;;;5116774;28;19918;-73
2024/01/11 03:29:23;;;;;;;;;;;2.60;99.90;;;;;;5115012;28;19904;-73
2024/01/11 03:31:48;;;;;;;;;;;2.60;99.90;;;;;;5112722;28;19904;-73
2024/01/11 03:34:14;;;;;;;;;;;2.60;99.90;;;;;;5116938;27;19957;-73
2024/01/11 03:36:40;;;;;;;;;;;2.60;99.90;;;;;;5116347;28;19900;-73
2024/01/11 03:39:05;;;;;;;;;;;2.60;99.90;;;;;;5115305;28;19994;-74
2024/01/11 03:41:31;;;;;;;;;;;2.60;99.90;;;;;;5116750;28;19904;-74
2024/01/11 03:43:57;;;;;;;;;;;2.60;99.90;;;;;;5115211;28;19912;-74
2024/01/11 03:46:22;;;;;;;;;;;2.60;99.90;;;;;;5116232;28;20116;-73
2024/01/11 03:48:48;;;;;;;;;;;2.60;99.90;;;;;;5115350;28;20009;-74
2024/01/11 03:51:14;;;;;;;;;;;2.60;99.90;;;;;;5114674;28;19910;-73
2024/01/11 03:53:39;;;;;;;;;;;2.60;99.90;;;;;;5116419;28;19904;-74
2024/01/11 03:56:05;;;;;;;;;;;2.60;99.90;;;;;;5116302;28;19926;-73
2024/01/11 03:58:30;;;;;;;;;;;2.60;99.90;;;;;;5098139;28;19926;-73
2024/01/11 04:00:56;;;;;;;;;;;2.60;99.90;;;;;;5108875;28;19951;-74
2024/01/11 04:03:21;;;;;;;;;;;2.60;99.90;;;;;;5107577;28;19938;-74
2024/01/11 04:05:48;;;;;;;;;;;2.60;99.90;;;;;;5107468;28;19939;-74
2024/01/11 04:08:13;;;;;;;;;;;2.60;99.90;;;;;;5114576;28;19914;-73
2024/01/11 04:10:39;;;;;;;;;;;2.60;99.90;;;;;;5114841;28;19935;-74
2024/01/11 04:13:06;;;;;;;;;;;2.60;99.90;;;;;;5116150;28;19943;-73
2024/01/11 04:15:32;;;;;;;;;;;2.60;99.90;;;;;;5111751;28;19906;-74
2024/01/11 04:17:57;;;;;;;;;;;2.50;99.90;;;;;;5115171;28;19903;-74
2024/01/11 04:20:24;;;;;;;;;;;2.50;99.90;;;;;;5115949;28;19907;-74
2024/01/11 04:22:49;;;;;;;;;;;2.60;99.90;;;;;;5116270;28;19990;-74
2024/01/11 04:25:15;;;;;;;;;;;2.50;99.90;;;;;;5115785;28;19965;-74
2024/01/11 04:27:40;;;;;;;;;;;2.50;99.90;;;;;;5114552;28;20396;-73
2024/01/11 04:30:06;;;;;;;;;;;2.50;99.90;;;;;;5114601;28;19910;-74
2024/01/11 04:32:32;;;;;;;;;;;2.50;99.90;;;;;;5111794;28;19995;-73
2024/01/11 04:34:57;;;;;;;;;;;2.50;99.90;;;;;;5115705;28;20291;-73
2024/01/11 04:37:23;;;;;;;;;;;2.50;99.90;;;;;;5116212;28;19914;-73
2024/01/11 04:39:48;;;;;;;;;;;2.50;99.90;;;;;;5115792;28;19907;-73
2024/01/11 04:42:14;;;;;;;;;;;2.50;99.90;;;;;;5116961;28;19961;-73
2024/01/11 04:44:40;;;;;;;;;;;2.50;99.90;;;;;;5119920;28;19907;-73
2024/01/11 04:47:05;;;;;;;;;;;2.50;99.90;;;;;;5116996;28;19908;-74
2024/01/11 04:49:31;;;;;;;;;;;2.50;99.90;;;;;;5118210;28;19904;-73
2024/01/11 04:51:56;;;;;;;;;;;2.50;99.90;;;;;;5118396;28;19943;-73
2024/01/11 04:54:22;;;;;;;;;;;2.50;99.90;;;;;;5118022;28;20283;-74
2024/01/11 04:56:47;;;;;;;;;;;2.50;99.90;;;;;;5119607;28;20014;-74
2024/01/11 04:59:13;;;;;;;;;;;2.50;99.90;;;;;;5119068;28;19910;-73
2024/01/11 05:01:39;;;;;;;;;;;2.50;99.90;;;;;;5119615;28;19904;-73
2024/01/11 05:04:06;;;;;;;;;;;2.50;99.90;;;;;;5119775;28;20385;-73
2024/01/11 05:06:31;;;;;;;;;;;2.50;99.90;;;;;;5119376;28;20395;-73
2024/01/11 05:08:57;;;;;;;;;;;2.50;99.90;;;;;;5119317;28;19904;-73
2024/01/11 05:11:26;;;;;;;;;;;2.50;99.90;;;;;;5119472;28;19903;-73
2024/01/11 05:13:52;;;;;;;;;;;2.40;99.90;;;;;;5118985;27;19970;-73
2024/01/11 05:16:21;;;;;;;;;;;2.40;99.90;;;;;;5113538;28;20349;-73
2024/01/11 05:18:46;;;;;;;;;;;2.40;99.90;;;;;;5119410;28;19996;-73
2024/01/11 05:21:12;;;;;;;;;;;2.40;99.90;;;;;;5117771;28;19903;-74
2024/01/11 05:23:37;;;;;;;;;;;2.40;99.90;;;;;;5109085;28;19904;-73
2024/01/11 05:26:03;;;;;;;;;;;2.40;99.90;;;;;;5118725;28;19914;-73
2024/01/11 05:28:28;;;;;;;;;;;2.40;99.90;;;;;;5117469;28;19904;-73
2024/01/11 05:30:54;;;;;;;;;;;2.30;99.90;;;;;;5118764;28;19908;-74
2024/01/11 05:33:20;;;;;;;;;;;2.30;99.90;;;;;;5106522;28;19904;-73
2024/01/11 05:35:45;;;;;;;;;;;2.30;99.90;;;;;;5115331;28;19915;-74
2024/01/11 05:38:11;;;;;;;;;;;2.30;99.90;;;;;;5117649;28;19911;-73
2024/01/11 05:40:37;;;;;;;;;;;2.30;99.90;;;;;;5118631;28;19908;-74
2024/01/11 05:43:02;;;;;;;;;;;2.30;99.90;;;;;;5118541;28;19904;-73
2024/01/11 05:45:28;;;;;;;;;;;2.30;99.90;;;;;;5118235;28;20329;-73
2024/01/11 05:47:53;;;;;;;;;;;2.30;99.90;;;;;;5118682;28;19907;-73
2024/01/11 05:50:19;;;;;;;;;;;2.30;99.90;;;;;;5117501;28;19953;-73
2024/01/11 05:52:45;;;;;;;;;;;2.30;99.90;;;;;;5114428;28;19914;-73
2024/01/11 05:55:10;;;;;;;;;;;2.30;99.90;;;;;;5117145;28;19943;-73
2024/01/11 05:57:36;;;;;;;;;;;2.30;99.90;;;;;;5118029;28;19965;-73
2024/01/11 06:00:01;;;;;;;;;;;2.30;99.90;;;;;;5118673;27;19907;-73
2024/01/11 06:02:27;;;;;;;;;;;2.30;99.90;;;;;;5118397;28;19907;-73
2024/01/11 06:04:53;;;;;;;;;;;2.30;99.90;;;;;;5118740;28;20016;-74
2024/01/11 06:07:19;;;;;;;;;;;2.30;99.90;;;;;;5118107;27;19978;-73
2024/01/11 06:09:44;;;;;;;;;;;2.30;99.90;;;;;;5118758;28;19903;-73
2024/01/11 06:12:10;;;;;;;;;;;2.30;99.90;;;;;;5116361;28;19911;-73
2024/01/11 06:14:35;;;;;;;;;;;2.30;99.90;;;;;;5116710;28;19908;-73
2024/01/11 06:17:01;;;;;;;;;;;2.30;99.90;;;;;;5117001;28;19910;-73
2024/01/11 06:19:26;;;;;;;;;;;2.30;99.90;;;;;;5118243;28;19929;-73
2024/01/11 06:21:52;;;;;;;;;;;2.30;99.90;;;;;;5117518;28;19973;-73
2024/01/11 06:24:17;;;;;;;;;;;2.30;99.90;;;;;;5116692;28;19907;-73
2024/01/11 06:26:43;;;;;;;;;;;2.30;99.90;;;;;;5116241;28;19915;-73
2024/01/11 06:29:08;;;;;;;;;;;2.30;99.90;;;;;;5116462;28;20329;-73
2024/01/11 06:31:34;;;;;;;;;;;2.30;99.90;;;;;;5115419;28;20371;-73
2024/01/11 06:33:59;;;;;;;;;;;2.30;99.90;;;;;;5118138;28;20398;-73
2024/01/11 06:36:25;;;;;;;;;;;2.30;99.90;;;;;;5117650;28;20375;-74
2024/01/11 06:38:50;;;;;;;;;;;2.30;99.90;;;;;;5117988;28;20339;-73
2024/01/11 06:41:16;;;;;;;;;;;2.30;99.90;;;;;;5117556;28;19915;-73
2024/01/11 06:43:41;;;;;;;;;;;2.30;99.90;;;;;;5117768;28;19908;-73
2024/01/11 06:46:09;;;;;;;;;;;2.30;99.90;;;;;;5116412;28;19912;-73
2024/01/11 06:48:34;;;;;;;;;;;2.40;99.90;;;;;;5117904;28;20321;-73
2024/01/11 06:51:00;;;;;;;;;;;2.30;99.90;;;;;;5117597;28;19904;-73
2024/01/11 06:53:25;;;;;;;;;;;2.30;99.90;;;;;;5117677;28;19904;-73
2024/01/11 06:55:52;;;;;;;;;;;2.30;99.90;;;;;;5116020;28;19916;-73
2024/01/11 06:58:20;;;;;;;;;;;2.30;99.90;;;;;;5117559;28;20084;-73
2024/01/11 07:00:46;;;;;;;;;;;2.30;99.90;;;;;;5107737;28;20417;-73
2024/01/11 07:03:11;;;;;;;;;;;2.30;99.90;;;;;;5117149;28;19992;-73
2024/01/11 07:05:37;;;;;;;;;;;2.30;99.90;;;;;;5116286;28;19910;-73
2024/01/11 07:08:03;;;;;;;;;;;2.30;99.90;;;;;;5115221;28;19934;-73
2024/01/11 07:10:29;;;;;;;;;;;2.30;99.90;;;;;;5116575;28;19904;-73
2024/01/11 07:12:55;;;;;;;;;;;2.30;99.90;;;;;;5115853;28;19956;-73
2024/01/11 07:15:20;;;;;;;;;;;2.30;99.90;;;;;;5114398;28;19946;-73
2024/01/11 07:17:46;;;;;;;;;;;2.30;99.90;;;;;;5117545;28;19904;-74
2024/01/11 07:20:13;;;;;;;;;;;2.30;99.90;;;;;;5115790;28;19903;-74
2024/01/11 07:22:38;;;;;;;;;;;2.20;99.90;;;;;;5115501;28;19910;-73
2024/01/11 07:25:04;;;;;;;;;;;2.20;99.90;;;;;;5116720;28;19907;-74
2024/01/11 07:27:29;;;;;;;;;;;2.20;99.90;;;;;;5116891;28;19915;-74
2024/01/11 07:29:55;;;;;;;;;;;2.20;99.90;;;;;;5115405;28;19998;-74
2024/01/11 07:32:20;;;;;;;;;;;2.10;99.90;;;;;;5112275;28;19910;-74
2024/01/11 07:34:46;;;;;;;;;;;2.10;99.90;;;;;;5117107;28;19910;-74
2024/01/11 07:37:11;;;;;;;;;;;2.10;99.90;;;;;;5116775;28;19954;-73
2024/01/11 07:39:37;;;;;;;;;;;2.10;99.90;;;;;;5117066;28;19904;-73
2024/01/11 07:42:03;;;;;;;;;;;2.10;99.90;;;;;;5115249;28;19911;-73
2024/01/11 07:44:28;;;;;;;;;;;2.10;99.90;;;;;;5115437;28;19904;-74
2024/01/11 07:46:54;;;;;;;;;;;2.10;99.90;;;;;;5116772;28;19911;-74
2024/01/11 07:49:20;;;;;;;;;;;2.10;99.90;;;;;;5116675;28;19908;-75
2024/01/11 07:51:45;;;;;;;;;;;2.10;99.90;;;;;;5115250;28;19907;-75
2024/01/11 07:54:12;;;;;;;;;;;2.00;99.90;;;;;;5116813;27;19904;-75
2024/01/11 07:56:37;;;;;;;;;;;2.00;99.90;;;;;;5115363;28;19916;-76
2024/01/11 07:59:03;;;;;;;;;;;1.90;99.90;;;;;;5116234;28;20011;-76
2024/01/11 08:01:28;;;;;;;;;;;1.90;99.90;;;;;;5116804;28;19903;-75
2024/01/11 08:03:54;;;;;;;;;;;1.90;99.90;;;;;;5116693;28;19911;-75
2024/01/11 08:06:19;;;;;;;;;;;1.80;99.90;;;;;;5116417;28;20027;-76
2024/01/11 08:08:51;;;;;;;;;;;1.80;99.90;;;;;;5116871;28;19915;-76
2024/01/11 08:11:16;;;;;;;;;;;1.70;99.90;;;;;;5096227;28;19926;-76
2024/01/11 08:13:42;;;;;;;;;;;1.70;99.90;;;;;;5108925;28;20368;-75
2024/01/11 08:16:09;;;;;;;;;;;1.70;99.90;;;;;;5110371;28;19907;-75
2024/01/11 08:18:35;;;;;;;;;;;1.70;99.90;;;;;;5110061;28;19947;-75
2024/01/11 08:21:00;;;;;;;;;;;1.70;99.90;;;;;;5111097;28;20686;-75
2024/01/11 08:23:26;;;;;;;;;;;1.70;99.90;;;;;;5109733;28;20383;-74
2024/01/11 08:25:54;;;;;;;;;;;1.70;99.90;;;;;;5112201;28;20296;-76
2024/01/11 08:28:20;;;;;;;;;;;1.70;99.90;;;;;;5110992;28;19908;-75
2024/01/11 08:30:45;;;;;;;;;;;1.70;99.90;;;;;;5112750;28;19918;-74
2024/01/11 08:33:11;;;;;;;;;;;1.70;99.90;;;;;;5108857;27;19912;-75
2024/01/11 08:35:39;;;;;;;;;;;1.70;99.90;;;;;;5113304;28;19915;-75
2024/01/11 08:38:05;;;;;;;;;;;1.70;99.90;;;;;;5108858;28;20009;-74
2024/01/11 08:40:30;;;;;;;;;;;1.80;99.90;;;;;;5111929;28;19908;-74
2024/01/11 08:42:56;;;;;;;;;;;1.80;99.90;;;;;;5111310;28;19912;-76
2024/01/11 08:45:22;;;;;;;;;;;1.90;99.90;;;;;;5110053;28;19908;-75
2024/01/11 08:47:47;;;;;;;;;;;2.00;99.90;;;;;;5109517;28;20302;-75
2024/01/11 08:50:13;;;;;;;;;;;2.10;99.90;;;;;;5104781;28;19979;-76
2024/01/11 08:52:39;;;;;;;;;;;2.10;99.90;;;;;;5110693;28;19904;-75
2024/01/11 08:55:05;;;;;;;;;;;2.20;99.90;;;;;;5112790;28;19996;-75
2024/01/11 08:57:30;;;;;;;;;;;2.30;99.90;;;;;;5110760;27;19919;-75
2024/01/11 08:59:56;;;;;;;;;;;2.40;99.90;;;;;;5112004;28;19919;-76
2024/01/11 09:02:22;;;;;;;;;;;2.50;99.90;;;;;;5109838;28;20551;-76
2024/01/11 09:04:48;;;;;;;;;;;2.50;99.90;;;;;;5108197;28;19926;-76
2024/01/11 09:07:15;;;;;;;;;;;2.60;99.90;;;;;;5110520;28;19912;-76
2024/01/11 09:09:41;;;;;;;;;;;2.70;99.90;;;;;;5111739;28;19908;-75
2024/01/11 09:12:06;;;;;;;;;;;2.80;99.90;;;;;;5106914;28;19915;-76
2024/01/11 09:14:32;;;;;;;;;;;2.80;99.90;;;;;;5108970;28;19927;-76
2024/01/11 09:16:58;;;;;;;;;;;2.90;99.90;;;;;;5106970;28;20008;-76
2024/01/11 09:19:23;;;;;;;;;;;3.00;99.90;;;;;;5109725;28;19903;-76
2024/01/11 09:21:49;;;;;;;;;;;3.00;99.90;;;;;;5108798;27;20765;-76
2024/01/11 09:24:15;;;;;;;;;;;3.10;99.90;;;;;;5106313;28;19907;-76
2024/01/11 09:26:40;;;;;;;;;;;3.20;99.90;;;;;;5108406;28;19912;-76
2024/01/11 09:29:06;;;;;;;;;;;3.20;99.90;;;;;;5112453;28;20006;-76
2024/01/11 09:31:31;;;;;;;;;;;3.20;99.90;;;;;;5105219;28;20028;-76
2024/01/11 09:33:57;;;;;;;;;;;3.20;99.90;;;;;;5116324;28;19907;-74
2024/01/11 09:36:22;;;;;;;;;;;3.30;99.90;;;;;;5113767;28;19912;-75
2024/01/11 09:38:48;;;;;;;;;;;3.40;99.90;;;;;;5113176;28;19903;-75
2024/01/11 09:41:14;;;;;;;;;;;3.50;99.90;;;;;;5112667;28;19904;-74
2024/01/11 09:43:43;;;;;;;;;;;3.50;99.90;;;;;;5116003;28;19908;-76
2024/01/11 09:46:09;;;;;;;;;;;3.70;99.90;;;;;;5111481;28;19919;-75
2024/01/11 09:48:35;;;;;;;;;;;3.70;99.90;;;;;;5116052;28;20083;-75
2024/01/11 09:51:07;;;;;;;;;;;3.80;99.90;;;;;;5116897;28;20388;-75
2024/01/11 09:53:33;;;;;;;;;;;3.90;99.90;;;;;;5113561;28;20614;-75
2024/01/11 09:55:59;;;;;;;;;;;4.00;99.90;;;;;;5114457;28;20396;-75
2024/01/11 09:58:25;;;;;;;;;;;4.10;99.90;;;;;;5115834;28;19912;-75
2024/01/11 10:00:54;;;;;;;;;;;4.10;99.90;;;;;;5111529;28;19919;-75
2024/01/11 10:03:20;;;;;;;;;;;4.20;99.90;;;;;;5116421;28;19911;-75
2024/01/11 10:05:46;;;;;;;;;;;4.30;99.90;;;;;;5114575;28;19907;-75
2024/01/11 10:08:12;;;;;;;;;;;4.20;99.90;;;;;;5115730;28;20011;-75
2024/01/11 10:10:37;;;;;;;;;;;4.30;99.90;;;;;;5115752;28;19907;-75
2024/01/11 10:13:03;;;;;;;;;;;4.40;99.90;;;;;;5114052;28;20030;-75
2024/01/11 10:15:28;;;;;;;;;;;4.40;99.90;;;;;;5113363;28;20044;-75
2024/01/11 10:17:54;;;;;;;;;;;4.40;99.90;;;;;;5115354;28;19938;-75
2024/01/11 10:20:23;;;;;;;;;;;4.40;99.90;;;;;;5110102;28;20002;-75
2024/01/11 10:22:49;;;;;;;;;;;4.30;99.90;;;;;;5111940;28;19919;-75
2024/01/11 10:25:15;;;;;;;;;;;4.40;99.90;;;;;;5110887;28;20309;-75
2024/01/11 10:27:45;;;;;;;;;;;4.60;99.90;;;;;;5106911;28;19957;-75
2024/01/11 10:30:12;;;;;;;;;;;4.80;99.90;;;;;;5114290;28;19943;-75
2024/01/11 10:32:38;;;;;;;;;;;4.80;99.90;;;;;;5111899;28;20003;-75
2024/01/11 10:35:04;;;;;;;;;;;4.70;99.90;;;;;;5110365;28;19953;-75
2024/01/11 10:37:31;;;;;;;;;;;4.60;99.90;;;;;;5115759;28;19903;-75
2024/01/11 10:39:57;;;;;;;;;;;4.70;99.90;;;;;;5110902;28;19908;-75
2024/01/11 10:42:24;;;;;;;;;;;4.70;99.90;;;;;;5114612;28;19915;-75
2024/01/11 10:44:54;;;;;;;;;;;4.60;99.90;;;;;;5115123;28;19908;-74
2024/01/11 10:47:22;;;;;;;;;;;4.60;99.90;;;;;;5114343;28;19912;-75
2024/01/11 10:49:49;;;;;;;;;;;4.60;99.90;;;;;;5114382;28;19904;-74
2024/01/11 10:52:15;;;;;;;;;;;4.80;99.90;;;;;;5113498;28;19914;-74
2024/01/11 10:54:41;;;;;;;;;;;5.00;99.90;;;;;;5112137;28;19991;-75
2024/01/11 10:57:08;;;;;;;;;;;5.20;99.90;;;;;;5114580;28;19926;-74
2024/01/11 10:59:35;;;;;;;;;;;5.40;99.90;;;;;;5109459;28;19908;-75
2024/01/11 11:02:06;;;;;;;;;;;5.50;99.90;;;;;;5112307;28;19908;-74
2024/01/11 11:04:32;;;;;;;;;;;5.70;99.90;;;;;;5116235;28;19908;-74
2024/01/11 11:07:00;;;;;;;;;;;5.70;99.90;;;;;;5107628;28;19909;-75
2024/01/11 11:09:27;;;;;;;;;;;5.70;99.90;;;;;;5116203;28;19911;-74
2024/01/11 11:11:55;;;;;;;;;;;5.50;99.90;;;;;;5111886;28;20031;-75
2024/01/11 11:14:22;;;;;;;;;;;5.70;99.90;;;;;;5111330;28;19979;-75
2024/01/11 11:16:47;;;;;;;;;;;5.60;99.90;;;;;;5103443;28;19998;-74
2024/01/11 11:19:14;;;;;;;;;;;5.60;99.90;;;;;;5105965;28;19946;-75
2024/01/11 11:21:43;;;;;;;;;;;5.60;99.90;;;;;;5106630;28;19968;-75
2024/01/11 11:24:09;;;;;;;;;;;5.60;99.90;;;;;;5108902;28;20394;-75
2024/01/11 11:26:36;;;;;;;;;;;5.70;99.90;;;;;;5107445;28;20187;-75
2024/01/11 11:29:03;;;;;;;;;;;5.80;99.90;;;;;;5101158;28;19943;-75
2024/01/11 11:31:37;;;;;;;;;;;5.80;99.90;;;;;;5106279;28;20457;-73
2024/01/11 11:34:04;;;;;;;;;;;6.00;99.90;;;;;;5103717;28;20372;-75
2024/01/11 11:36:30;;;;;;;;;;;6.10;99.90;;;;;;5101696;28;19961;-76
2024/01/11 11:39:00;;;;;;;;;;;6.30;99.90;;;;;;5109605;28;20296;-75
2024/01/11 11:41:26;;;;;;;;;;;6.30;99.90;;;;;;5103267;28;19907;-75
2024/01/11 11:43:51;;;;;;;;;;;6.20;99.90;;;;;;5107184;28;19914;-75
2024/01/11 11:46:17;;;;;;;;;;;6.00;99.90;;;;;;5101648;28;19912;-75
2024/01/11 11:48:46;;;;;;;;;;;6.00;99.90;;;;;;5105267;28;19923;-75
2024/01/11 11:51:12;;;;;;;;;;;6.00;99.90;;;;;;5106175;28;20045;-75
2024/01/11 11:53:39;;;;;;;;;;;5.90;99.90;;;;;;5107370;28;19919;-75
2024/01/11 11:56:05;;;;;;;;;;;6.00;99.90;;;;;;5105513;28;19919;-75
2024/01/11 11:58:31;;;;;;;;;;;6.00;99.90;;;;;;5107801;28;20054;-75
2024/01/11 12:01:01;;;;;;;;;;;5.90;99.90;;;;;;5098887;28;19915;-75
2024/01/11 12:03:33;;;;;;;;;;;5.70;99.90;;;;;;5107395;28;20428;-75
2024/01/11 12:06:00;;;;;;;;;;;5.60;99.90;;;;;;5106161;28;19907;-75
2024/01/11 12:08:26;;;;;;;;;;;5.60;99.90;;;;;;5104823;28;19940;-75
2024/01/11 12:10:51;;;;;;;;;;;5.60;99.90;;;;;;5106116;28;19915;-75
2024/01/11 12:13:17;;;;;;;;;;;5.70;99.90;;;;;;5108905;28;19964;-75
2024/01/11 12:15:43;;;;;;;;;;;5.80;99.90;;;;;;5103607;28;20619;-75
2024/01/11 12:18:08;;;;;;;;;;;5.80;99.90;;;;;;5103267;28;19943;-75
2024/01/11 12:20:34;;;;;;;;;;;5.90;99.90;;;;;;5102045;28;19908;-75
2024/01/11 12:23:02;;;;;;;;;;;5.90;99.90;;;;;;5102917;28;19987;-75
2024/01/11 12:25:27;;;;;;;;;;;5.90;99.90;;;;;;5108124;28;19908;-75
2024/01/11 12:27:53;;;;;;;;;;;5.90;99.90;;;;;;5105071;28;20410;-75
2024/01/11 12:30:21;;;;;;;;;;;6.00;99.90;;;;;;5105480;28;19915;-74
2024/01/11 12:32:47;;;;;;;;;;;6.20;99.90;;;;;;5105940;28;20371;-75
2024/01/11 12:35:13;;;;;;;;;;;6.30;99.90;;;;;;5102820;28;19930;-75
2024/01/11 12:37:38;;;;;;;;;;;6.50;99.90;;;;;;5108212;28;19911;-74
2024/01/11 12:40:06;;;;;;;;;;;6.60;99.90;;;;;;5110543;28;20665;-75
2024/01/11 12:42:34;;;;;;;;;;;6.70;99.90;;;;;;5101284;28;19915;-75
2024/01/11 12:45:00;;;;;;;;;;;6.70;99.90;;;;;;5109000;28;19903;-75
2024/01/11 12:47:25;;;;;;;;;;;6.80;99.90;;;;;;5109350;28;19922;-75
2024/01/11 12:49:51;;;;;;;;;;;6.80;99.90;;;;;;5101860;28;19908;-75
2024/01/11 12:52:18;;;;;;;;;;;6.80;99.90;;;;;;5104825;28;20004;-75
2024/01/11 12:54:45;;;;;;;;;;;6.80;99.90;;;;;;5106996;28;19908;-75
2024/01/11 12:57:20;;;;;;;;;;;7.00;99.90;;;;;;5103268;28;20751;-74
2024/01/11 12:59:46;;;;;;;;;;;7.00;99.90;;;;;;5103089;28;19910;-75
2024/01/11 13:02:14;;;;;;;;;;;7.10;99.90;;;;;;5105514;28;19904;-75
2024/01/11 13:04:40;;;;;;;;;;;7.10;99.90;;;;;;5114041;28;19907;-75
2024/01/11 13:07:07;;;;;;;;;;;7.00;99.90;;;;;;5108689;28;19961;-75
2024/01/11 13:09:32;;;;;;;;;;;6.80;99.90;;;;;;5107951;28;20328;-75
2024/01/11 13:11:58;;;;;;;;;;;6.80;99.90;;;;;;5108786;28;19916;-75
2024/01/11 13:14:24;;;;;;;;;;;6.80;99.90;;;;;;5106517;28;20099;-75
2024/01/11 13:16:49;;;;;;;;;;;6.90;99.90;;;;;;5111238;28;20020;-75
2024/01/11 13:19:15;;;;;;;;;;;6.90;99.90;;;;;;5108641;28;20413;-75
2024/01/11 13:21:40;;;;;;;;;;;6.90;99.90;;;;;;5108439;28;19911;-75
2024/01/11 13:24:07;;;;;;;;;;;6.70;99.90;;;;;;5106862;28;19908;-75
2024/01/11 13:26:33;;;;;;;;;;;6.80;99.90;;;;;;5107430;28;19916;-75
2024/01/11 13:28:58;;;;;;;;;;;6.60;99.90;;;;;;5109789;28;19908;-75
2024/01/11 13:31:24;;;;;;;;;;;6.60;99.90;;;;;;5109462;28;19991;-75
2024/01/11 13:33:49;;;;;;;;;;;6.60;99.90;;;;;;5109260;28;19929;-75
2024/01/11 13:36:15;;;;;;;;;;;6.50;99.90;;;;;;5103165;28;20369;-75
2024/01/11 13:38:41;;;;;;;;;;;6.50;99.90;;;;;;5109933;28;20395;-75
2024/01/11 13:41:07;;;;;;;;;;;6.50;99.90;;;;;;5102376;28;20006;-76
2024/01/11 13:43:34;;;;;;;;;;;6.40;99.90;;;;;;5110862;28;20364;-75
2024/01/11 13:46:00;;;;;;;;;;;6.40;99.90;;;;;;5107156;28;19908;-75
2024/01/11 13:48:26;;;;;;;;;;;6.30;99.90;;;;;;5110154;28;19914;-73
2024/01/11 13:50:51;;;;;;;;;;;6.30;99.90;;;;;;5106580;28;19910;-74
2024/01/11 13:53:17;;;;;;;;;;;6.20;99.90;;;;;;5112444;28;19915;-73
2024/01/11 13:55:43;;;;;;;;;;;6.20;99.90;;;;;;5102525;28;19916;-74
2024/01/11 13:58:09;;;;;;;;;;;6.20;99.90;;;;;;5106126;28;19923;-74
2024/01/11 14:00:34;;;;;;;;;;;6.30;99.90;;;;;;5103194;28;20148;-73
2024/01/11 14:03:00;;;;;;;;;;;6.20;99.90;;;;;;5111001;28;20374;-73
2024/01/11 14:05:26;;;;;;;;;;;6.20;99.90;;;;;;5109073;27;19919;-73
2024/01/11 14:07:57;;;;;;;;;;;6.20;99.90;;;;;;5105409;28;19908;-73
2024/01/11 14:10:23;;;;;;;;;;;6.30;99.90;;;;;;5102274;28;20345;-73
2024/01/11 14:12:49;;;;;;;;;;;6.30;99.90;;;;;;5107187;27;19928;-74
2024/01/11 14:15:16;;;;;;;;;;;6.40;99.90;;;;;;5104874;28;19911;-74
2024/01/11 14:17:41;;;;;;;;;;;6.40;99.90;;;;;;5109274;28;19907;-74
2024/01/11 14:20:11;;;;;;;;;;;6.40;99.90;;;;;;5104563;28;19908;-74
2024/01/11 14:22:37;;;;;;;;;;;6.40;99.90;;;;;;5102375;28;19908;-74